createdAt,value
2019-04-03T00:00:41.583Z,0.00
2019-04-03T00:01:41.639Z,0.00
2019-04-03T00:02:41.694Z,0.00
2019-04-03T00:03:41.750Z,0.00
2019-04-03T00:04:41.808Z,0.00
2019-04-03T00:05:41.883Z,0.00
2019-04-03T00:06:41.919Z,0.00
2019-04-03T00:07:41.975Z,0.00
2019-04-03T00:08:42.032Z,0.00
2019-04-03T00:09:42.096Z,0.00
2019-04-03T00:10:42.155Z,0.00
2019-04-03T00:11:42.210Z,0.00
2019-04-03T00:12:42.268Z,0.00
2019-04-03T00:13:42.624Z,0.00
2019-04-03T00:14:43.131Z,0.00
2019-04-03T00:15:44.240Z,0.00
2019-04-03T00:16:43.751Z,0.00
2019-04-03T00:17:45.281Z,0.00
2019-04-03T00:18:42.649Z,0.00
2019-04-03T00:19:42.648Z,0.00
2019-04-03T00:20:42.886Z,0.00
2019-04-03T00:21:42.760Z,0.00
2019-04-03T00:22:45.758Z,0.00
2019-04-03T00:23:42.870Z,0.00
2019-04-03T00:24:42.930Z,0.00
2019-04-03T00:25:42.984Z,0.00
2019-04-03T00:26:43.038Z,0.00
2019-04-03T00:27:43.097Z,0.00
2019-04-03T00:28:43.294Z,0.00
2019-04-03T00:29:43.207Z,0.00
2019-04-03T00:30:43.348Z,0.00
2019-04-03T00:31:43.320Z,0.00
2019-04-03T00:32:43.376Z,0.00
2019-04-03T00:33:43.430Z,0.00
2019-04-03T00:34:43.489Z,0.00
2019-04-03T00:35:43.541Z,0.00
2019-04-03T00:36:43.597Z,0.00
2019-04-03T00:37:43.666Z,0.00
2019-04-03T00:38:43.708Z,0.00
2019-04-03T00:39:43.765Z,0.00
2019-04-03T00:40:43.887Z,0.00
2019-04-03T00:41:43.876Z,0.00
2019-04-03T00:42:43.979Z,0.00
2019-04-03T00:43:43.987Z,0.00
2019-04-03T00:44:44.044Z,0.00
2019-04-03T00:45:44.101Z,0.00
2019-04-03T00:46:44.154Z,0.00
2019-04-03T00:47:44.209Z,0.00
2019-04-03T00:48:44.265Z,0.00
2019-04-03T00:49:44.321Z,0.00
2019-04-03T00:50:44.376Z,0.00
2019-04-03T00:51:44.432Z,0.00
2019-04-03T00:52:44.488Z,0.00
2019-04-03T00:53:44.543Z,0.00
2019-04-03T00:54:44.600Z,0.00
2019-04-03T00:55:44.656Z,0.00
2019-04-03T00:56:44.711Z,0.00
2019-04-03T00:57:44.916Z,0.00
2019-04-03T00:58:44.823Z,0.00
2019-04-03T00:59:44.879Z,0.00
2019-04-03T01:00:44.962Z,0.00
2019-04-03T01:01:45.300Z,0.00
2019-04-03T01:02:45.045Z,0.00
2019-04-03T01:03:45.100Z,0.00
2019-04-03T01:04:45.156Z,0.00
2019-04-03T01:05:45.212Z,0.00
2019-04-03T01:06:45.268Z,0.00
2019-04-03T01:07:45.321Z,0.00
2019-04-03T01:08:45.381Z,0.00
2019-04-03T01:09:45.434Z,0.00
2019-04-03T01:10:45.490Z,0.00
2019-04-03T01:11:45.544Z,0.00
2019-04-03T01:12:45.601Z,0.00
2019-04-03T01:13:45.667Z,0.00
2019-04-03T01:14:45.715Z,0.00
2019-04-03T01:15:45.770Z,0.00
2019-04-03T01:16:45.950Z,0.00
2019-04-03T01:17:45.881Z,0.00
2019-04-03T01:18:45.940Z,0.00
2019-04-03T01:19:45.990Z,0.00
2019-04-03T01:20:46.048Z,0.00
2019-04-03T01:21:46.103Z,0.00
2019-04-03T01:22:46.172Z,0.00
2019-04-03T01:23:46.217Z,0.00
2019-04-03T01:24:46.312Z,0.00
2019-04-03T01:25:46.324Z,0.00
2019-04-03T01:26:46.381Z,0.00
2019-04-03T01:27:46.435Z,0.00
2019-04-03T01:28:46.489Z,0.00
2019-04-03T01:29:46.545Z,0.00
2019-04-03T01:30:46.673Z,0.00
2019-04-03T01:31:46.656Z,0.00
2019-04-03T01:32:47.171Z,0.00
2019-04-03T01:33:47.181Z,0.00
2019-04-03T01:34:47.727Z,0.00
2019-04-03T01:35:47.399Z,0.00
2019-04-03T01:36:48.232Z,0.00
2019-04-03T01:37:47.866Z,0.00
2019-04-03T01:38:49.250Z,0.00
2019-04-03T01:39:47.099Z,0.00
2019-04-03T01:40:47.293Z,0.00
2019-04-03T01:41:47.210Z,0.00
2019-04-03T01:42:47.287Z,0.00
2019-04-03T01:43:47.319Z,0.00
2019-04-03T01:44:47.406Z,0.00
2019-04-03T01:45:47.433Z,0.00
2019-04-03T01:46:47.792Z,0.00
2019-04-03T01:47:47.680Z,0.00
2019-04-03T01:48:47.599Z,0.00
2019-04-03T01:49:47.656Z,0.00
2019-04-03T01:50:47.708Z,0.00
2019-04-03T01:51:47.765Z,0.00
2019-04-03T01:52:47.929Z,0.00
2019-04-03T01:53:47.875Z,0.00
2019-04-03T01:54:48.043Z,0.00
2019-04-03T01:55:47.986Z,0.00
2019-04-03T01:56:48.041Z,0.00
2019-04-03T01:57:48.099Z,0.00
2019-04-03T01:58:48.152Z,0.00
2019-04-03T01:59:48.208Z,0.00
2019-04-03T02:00:48.262Z,0.00
2019-04-03T02:01:48.318Z,0.00
2019-04-03T02:02:48.375Z,0.00
2019-04-03T02:03:48.429Z,0.00
2019-04-03T02:04:48.694Z,0.00
2019-04-03T02:05:48.541Z,0.00
2019-04-03T02:06:48.634Z,0.00
2019-04-03T02:07:48.650Z,0.00
2019-04-03T02:08:48.705Z,0.00
2019-04-03T02:09:48.762Z,0.00
2019-04-03T02:10:49.230Z,0.00
2019-04-03T02:11:49.312Z,0.00
2019-04-03T02:12:50.833Z,0.00
2019-04-03T02:13:50.997Z,0.00
2019-04-03T02:14:51.019Z,0.00
2019-04-03T02:15:49.094Z,0.00
2019-04-03T02:16:49.149Z,0.00
2019-04-03T02:17:49.207Z,0.00
2019-04-03T02:18:49.259Z,0.00
2019-04-03T02:19:49.316Z,0.00
2019-04-03T02:20:49.375Z,0.00
2019-04-03T02:21:49.427Z,0.00
2019-04-03T02:22:49.482Z,0.00
2019-04-03T02:23:49.537Z,0.00
2019-04-03T02:24:49.595Z,0.00
2019-04-03T02:25:49.649Z,0.00
2019-04-03T02:26:49.705Z,0.00
2019-04-03T02:27:49.760Z,0.00
2019-04-03T02:28:49.815Z,0.00
2019-04-03T02:29:50.047Z,0.00
2019-04-03T02:30:50.007Z,0.00
2019-04-03T02:31:52.932Z,0.00
2019-04-03T02:32:50.037Z,0.00
2019-04-03T02:33:50.093Z,0.00
2019-04-03T02:34:50.148Z,0.00
2019-04-03T02:35:50.202Z,0.00
2019-04-03T02:36:50.262Z,0.00
2019-04-03T02:37:50.850Z,0.00
2019-04-03T02:38:51.534Z,0.00
2019-04-03T02:39:50.422Z,0.00
2019-04-03T02:40:50.483Z,0.00
2019-04-03T02:41:50.532Z,0.00
2019-04-03T02:42:50.587Z,0.00
2019-04-03T02:43:50.652Z,0.00
2019-04-03T02:44:51.747Z,0.00
2019-04-03T02:45:50.754Z,0.00
2019-04-03T02:46:50.966Z,0.00
2019-04-03T02:47:50.961Z,0.00
2019-04-03T02:48:50.918Z,0.00
2019-04-03T02:49:50.977Z,0.00
2019-04-03T02:50:51.026Z,0.00
2019-04-03T02:51:52.953Z,0.00
2019-04-03T02:52:51.140Z,0.00
2019-04-03T02:53:51.346Z,0.00
2019-04-03T02:54:51.371Z,0.00
2019-04-03T02:55:51.303Z,0.00
2019-04-03T02:56:51.357Z,0.00
2019-04-03T02:57:51.993Z,0.00
2019-04-03T02:58:53.937Z,0.00
2019-04-03T02:59:51.523Z,0.00
2019-04-03T03:00:51.578Z,0.00
2019-04-03T03:01:51.693Z,0.00
2019-04-03T03:02:51.771Z,0.00
2019-04-03T03:03:51.963Z,0.00
2019-04-03T03:04:54.637Z,0.00
2019-04-03T03:05:52.020Z,0.00
2019-04-03T03:06:51.904Z,0.00
2019-04-03T03:07:51.985Z,0.00
2019-04-03T03:08:52.015Z,0.00
2019-04-03T03:09:52.082Z,0.00
2019-04-03T03:10:52.885Z,0.00
2019-04-03T03:11:54.911Z,0.00
2019-04-03T03:12:52.233Z,0.00
2019-04-03T03:13:52.362Z,0.00
2019-04-03T03:14:52.596Z,0.00
2019-04-03T03:15:52.398Z,0.00
2019-04-03T03:16:52.484Z,0.00
2019-04-03T03:17:55.089Z,0.00
2019-04-03T03:18:52.564Z,0.00
2019-04-03T03:19:52.619Z,0.00
2019-04-03T03:20:52.865Z,0.00
2019-04-03T03:21:52.729Z,0.00
2019-04-03T03:22:52.963Z,0.00
2019-04-03T03:23:55.195Z,0.00
2019-04-03T03:24:53.052Z,0.00
2019-04-03T03:25:52.947Z,0.00
2019-04-03T03:26:53.002Z,0.00
2019-04-03T03:27:53.056Z,0.00
2019-04-03T03:28:53.386Z,0.00
2019-04-03T03:29:53.217Z,0.00
2019-04-03T03:30:59.557Z,0.00
2019-04-03T03:32:11.191Z,0.00
2019-04-03T03:33:10.169Z,0.00
2019-04-03T03:34:00.884Z,0.00
2019-04-03T03:35:06.570Z,0.00
2019-04-03T03:35:53.848Z,0.00
2019-04-03T03:36:58.665Z,0.00
2019-04-03T03:37:53.605Z,0.00
2019-04-03T03:38:53.664Z,0.00
2019-04-03T03:39:53.759Z,0.00
2019-04-03T03:40:53.771Z,0.00
2019-04-03T03:41:57.515Z,0.00
2019-04-03T03:42:53.880Z,0.00
2019-04-03T03:43:54.303Z,0.00
2019-04-03T03:44:54.286Z,0.00
2019-04-03T03:45:54.177Z,0.00
2019-04-03T03:46:54.101Z,0.00
2019-04-03T03:47:54.537Z,0.00
2019-04-03T03:48:54.209Z,0.00
2019-04-03T03:49:54.284Z,0.00
2019-04-03T03:50:57.264Z,0.00
2019-04-03T03:51:54.375Z,0.00
2019-04-03T03:52:54.429Z,0.00
2019-04-03T03:53:54.485Z,0.00
2019-04-03T03:54:54.683Z,0.00
2019-04-03T03:55:58.405Z,0.00
2019-04-03T03:56:54.769Z,0.00
2019-04-03T03:57:55.026Z,0.00
2019-04-03T03:58:54.766Z,0.00
2019-04-03T03:59:54.816Z,0.00
2019-04-03T04:00:58.312Z,0.00
2019-04-03T04:01:55.129Z,0.00
2019-04-03T04:02:55.311Z,0.00
2019-04-03T04:03:55.036Z,0.00
2019-04-03T04:04:55.088Z,0.00
2019-04-03T04:05:56.407Z,0.00
2019-04-03T04:06:55.199Z,0.00
2019-04-03T04:07:55.631Z,0.00
2019-04-03T04:08:55.313Z,0.00
2019-04-03T04:09:55.366Z,0.00
2019-04-03T04:10:58.841Z,0.00
2019-04-03T04:11:55.562Z,0.00
2019-04-03T04:12:55.529Z,0.00
2019-04-03T04:13:55.804Z,0.00
2019-04-03T04:14:57.173Z,0.00
2019-04-03T04:15:55.694Z,0.00
2019-04-03T04:16:55.750Z,0.00
2019-04-03T04:17:55.923Z,0.00
2019-04-03T04:18:57.456Z,0.00
2019-04-03T04:19:55.917Z,0.00
2019-04-03T04:20:56.003Z,0.00
2019-04-03T04:21:56.227Z,0.00
2019-04-03T04:22:56.218Z,0.00
2019-04-03T04:23:57.272Z,0.00
2019-04-03T04:24:58.589Z,0.00
2019-04-03T04:25:56.244Z,0.00
2019-04-03T04:26:56.565Z,0.00
2019-04-03T04:27:56.353Z,0.00
2019-04-03T04:28:56.409Z,0.00
2019-04-03T04:29:56.464Z,0.00
2019-04-03T04:30:56.523Z,0.00
2019-04-03T04:31:56.879Z,0.00
2019-04-03T04:32:56.675Z,0.00
2019-04-03T04:33:56.687Z,0.00
2019-04-03T04:34:56.874Z,0.00
2019-04-03T04:35:56.923Z,0.00
2019-04-03T04:36:56.848Z,0.00
2019-04-03T04:37:56.904Z,0.00
2019-04-03T04:38:57.927Z,4.00
2019-04-03T04:39:57.948Z,4.00
2019-04-03T04:40:57.415Z,4.00
2019-04-03T04:41:57.129Z,4.00
2019-04-03T04:42:57.177Z,8.00
2019-04-03T04:43:57.232Z,4.00
2019-04-03T04:44:57.288Z,12.00
2019-04-03T04:45:57.343Z,12.00
2019-04-03T04:46:57.401Z,16.00
2019-04-03T04:47:57.457Z,12.00
2019-04-03T04:48:57.509Z,16.00
2019-04-03T04:49:57.582Z,16.00
2019-04-03T04:50:57.619Z,16.00
2019-04-03T04:51:57.676Z,20.00
2019-04-03T04:52:58.766Z,24.00
2019-04-03T04:53:59.451Z,28.00
2019-04-03T04:54:57.838Z,32.00
2019-04-03T04:55:57.896Z,36.00
2019-04-03T04:56:57.949Z,40.00
2019-04-03T04:57:58.005Z,40.00
2019-04-03T04:58:58.203Z,44.00
2019-04-03T04:59:58.113Z,48.00
2019-04-03T05:00:58.181Z,52.00
2019-04-03T05:01:58.474Z,52.00
2019-04-03T05:03:00.943Z,56.00
2019-04-03T05:03:58.388Z,56.00
2019-04-03T05:04:58.674Z,56.00
2019-04-03T05:05:58.697Z,64.00
2019-04-03T05:07:00.138Z,64.00
2019-04-03T05:07:59.803Z,72.00
2019-04-03T05:08:58.614Z,76.00
2019-04-03T05:09:58.663Z,80.00
2019-04-03T05:10:58.717Z,88.00
2019-04-03T05:11:58.772Z,96.00
2019-04-03T05:12:58.831Z,104.00
2019-04-03T05:13:58.881Z,108.00
2019-04-03T05:14:58.938Z,116.00
2019-04-03T05:15:59.073Z,120.00
2019-04-03T05:16:59.059Z,128.00
2019-04-03T05:17:59.102Z,128.00
2019-04-03T05:19:08.692Z,132.00
2019-04-03T05:19:59.293Z,128.00
2019-04-03T05:20:59.266Z,128.00
2019-04-03T05:21:59.320Z,128.00
2019-04-03T05:22:59.374Z,124.00
2019-04-03T05:24:10.731Z,128.00
2019-04-03T05:25:00.251Z,136.00
2019-04-03T05:26:01.903Z,140.00
2019-04-03T05:27:02.450Z,152.00
2019-04-03T05:28:00.364Z,160.00
2019-04-03T05:28:59.705Z,180.00
2019-04-03T05:29:59.757Z,216.00
2019-04-03T05:30:59.813Z,272.00
2019-04-03T05:31:59.866Z,316.00
2019-04-03T05:32:59.921Z,328.00
2019-04-03T05:33:59.977Z,340.00
2019-04-03T05:35:00.029Z,328.00
2019-04-03T05:36:00.113Z,316.00
2019-04-03T05:37:00.140Z,332.00
2019-04-03T05:38:00.194Z,360.00
2019-04-03T05:39:02.691Z,396.00
2019-04-03T05:40:00.302Z,420.00
2019-04-03T05:41:00.542Z,428.00
2019-04-03T05:42:00.416Z,424.00
2019-04-03T05:43:00.666Z,444.00
2019-04-03T05:44:02.351Z,484.00
2019-04-03T05:45:03.469Z,524.00
2019-04-03T05:46:00.852Z,548.00
2019-04-03T05:47:00.731Z,548.00
2019-04-03T05:48:00.739Z,564.00
2019-04-03T05:49:00.795Z,596.00
2019-04-03T05:50:00.848Z,640.00
2019-04-03T05:51:00.903Z,688.00
2019-04-03T05:52:03.535Z,708.00
2019-04-03T05:53:01.319Z,728.00
2019-04-03T05:54:01.074Z,740.00
2019-04-03T05:55:01.122Z,732.00
2019-04-03T05:56:01.176Z,712.00
2019-04-03T05:57:01.229Z,612.00
2019-04-03T05:58:01.286Z,460.00
2019-04-03T05:59:02.922Z,492.00
2019-04-03T06:00:02.515Z,652.00
2019-04-03T06:01:05.697Z,788.00
2019-04-03T06:02:13.506Z,884.00
2019-04-03T06:03:01.560Z,1016.00
2019-04-03T06:04:01.619Z,1144.00
2019-04-03T06:05:01.982Z,1232.00
2019-04-03T06:06:01.792Z,1256.00
2019-04-03T06:07:01.875Z,1240.00
2019-04-03T06:08:02.675Z,1240.00
2019-04-03T06:09:01.888Z,1292.00
2019-04-03T06:10:01.939Z,1332.00
2019-04-03T06:11:03.684Z,1352.00
2019-04-03T06:12:02.047Z,1328.00
2019-04-03T06:13:05.104Z,1324.00
2019-04-03T06:14:02.157Z,1352.00
2019-04-03T06:15:02.210Z,1380.00
2019-04-03T06:16:02.267Z,1392.00
2019-04-03T06:17:02.534Z,1396.00
2019-04-03T06:18:02.378Z,1372.00
2019-04-03T06:19:02.428Z,1312.00
2019-04-03T06:20:02.482Z,1256.00
2019-04-03T06:21:02.537Z,1236.00
2019-04-03T06:22:02.684Z,1276.00
2019-04-03T06:23:02.646Z,1348.00
2019-04-03T06:24:02.699Z,1424.00
2019-04-03T06:25:02.767Z,1532.00
2019-04-03T06:26:03.114Z,1684.00
2019-04-03T06:27:02.863Z,1856.00
2019-04-03T06:28:02.916Z,1984.00
2019-04-03T06:29:02.998Z,2072.00
2019-04-03T06:30:03.024Z,2112.00
2019-04-03T06:31:03.091Z,2172.00
2019-04-03T06:32:05.783Z,2196.00
2019-04-03T06:33:03.187Z,2148.00
2019-04-03T06:34:03.407Z,2092.00
2019-04-03T06:35:03.297Z,2052.00
2019-04-03T06:36:03.351Z,2040.00
2019-04-03T06:37:03.647Z,2068.00
2019-04-03T06:38:03.498Z,2124.00
2019-04-03T06:39:03.514Z,2180.00
2019-04-03T06:40:03.885Z,2224.00
2019-04-03T06:41:03.658Z,2320.00
2019-04-03T06:42:03.677Z,2460.00
2019-04-03T06:43:03.732Z,2544.00
2019-04-03T06:44:04.045Z,2572.00
2019-04-03T06:45:03.838Z,2468.00
2019-04-03T06:46:03.893Z,2300.00
2019-04-03T06:47:03.979Z,2184.00
2019-04-03T06:48:05.143Z,2052.00
2019-04-03T06:49:04.057Z,2392.00
2019-04-03T06:50:04.390Z,2504.00
2019-04-03T06:51:04.203Z,2624.00
2019-04-03T06:52:04.465Z,2700.00
2019-04-03T06:53:04.273Z,2808.00
2019-04-03T06:54:06.952Z,2884.00
2019-04-03T06:55:04.392Z,2952.00
2019-04-03T06:56:04.435Z,2964.00
2019-04-03T06:57:04.495Z,2916.00
2019-04-03T06:58:04.546Z,2840.00
2019-04-03T06:59:04.599Z,2828.00
2019-04-03T07:00:04.653Z,2752.00
2019-04-03T07:01:04.716Z,2608.00
2019-04-03T07:02:04.772Z,2508.00
2019-04-03T07:03:04.814Z,2452.00
2019-04-03T07:04:06.475Z,2420.00
2019-04-03T07:05:04.923Z,2412.00
2019-04-03T07:06:04.978Z,2412.00
2019-04-03T07:07:05.029Z,2464.00
2019-04-03T07:08:05.999Z,2632.00
2019-04-03T07:09:05.454Z,2824.00
2019-04-03T07:10:08.330Z,3024.00
2019-04-03T07:11:05.246Z,3224.00
2019-04-03T07:12:05.303Z,3508.00
2019-04-03T07:13:05.357Z,3752.00
2019-04-03T07:14:05.412Z,3832.00
2019-04-03T07:15:05.464Z,4072.00
2019-04-03T07:16:05.519Z,4300.00
2019-04-03T07:17:06.066Z,4408.00
2019-04-03T07:18:06.568Z,4580.00
2019-04-03T07:19:07.582Z,4848.00
2019-04-03T07:20:13.478Z,5144.00
2019-04-03T07:21:05.805Z,5404.00
2019-04-03T07:22:05.845Z,5544.00
2019-04-03T07:23:06.166Z,5548.00
2019-04-03T07:24:05.951Z,5476.00
2019-04-03T07:25:06.005Z,5396.00
2019-04-03T07:26:06.336Z,5360.00
2019-04-03T07:27:06.950Z,5344.00
2019-04-03T07:28:08.589Z,5368.00
2019-04-03T07:29:06.224Z,5396.00
2019-04-03T07:30:06.280Z,5332.00
2019-04-03T07:31:06.340Z,5172.00
2019-04-03T07:32:06.389Z,4964.00
2019-04-03T07:33:06.449Z,4760.00
2019-04-03T07:34:06.772Z,4604.00
2019-04-03T07:35:09.797Z,4464.00
2019-04-03T07:36:06.898Z,4304.00
2019-04-03T07:37:06.680Z,4124.00
2019-04-03T07:38:07.002Z,3940.00
2019-04-03T07:39:09.714Z,3804.00
2019-04-03T07:40:06.885Z,3744.00
2019-04-03T07:41:06.882Z,3856.00
2019-04-03T07:42:06.938Z,4072.00
2019-04-03T07:43:07.180Z,4268.00
2019-04-03T07:44:07.044Z,4388.00
2019-04-03T07:45:07.102Z,4456.00
2019-04-03T07:46:07.157Z,4480.00
2019-04-03T07:47:07.210Z,4572.00
2019-04-03T07:48:07.265Z,4792.00
2019-04-03T07:49:09.052Z,4952.00
2019-04-03T07:50:10.387Z,5184.00
2019-04-03T07:51:07.436Z,5636.00
2019-04-03T07:52:07.744Z,6168.00
2019-04-03T07:53:07.822Z,6728.00
2019-04-03T07:54:07.595Z,7188.00
2019-04-03T07:55:07.855Z,7476.00
2019-04-03T07:56:07.717Z,7700.00
2019-04-03T07:57:09.794Z,7760.00
2019-04-03T07:58:07.817Z,7672.00
2019-04-03T07:59:08.302Z,7600.00
2019-04-03T08:00:07.933Z,7628.00
2019-04-03T08:01:10.579Z,7632.00
2019-04-03T08:02:08.074Z,7624.00
2019-04-03T08:03:08.200Z,7636.00
2019-04-03T08:04:09.132Z,7408.00
2019-04-03T08:05:09.310Z,7248.00
2019-04-03T08:06:08.260Z,7332.00
2019-04-03T08:07:08.308Z,7464.00
2019-04-03T08:08:08.494Z,7720.00
2019-04-03T08:09:09.911Z,8076.00
2019-04-03T08:10:08.475Z,8588.00
2019-04-03T08:11:08.550Z,9092.00
2019-04-03T08:12:08.652Z,9188.00
2019-04-03T08:13:08.662Z,9004.00
2019-04-03T08:14:09.545Z,8844.00
2019-04-03T08:15:08.750Z,8800.00
2019-04-03T08:16:08.827Z,8796.00
2019-04-03T08:17:09.309Z,8784.00
2019-04-03T08:18:09.597Z,8788.00
2019-04-03T08:20:09.292Z,9096.00
2019-04-03T08:21:09.432Z,9564.00
2019-04-03T08:22:09.396Z,10096.00
2019-04-03T08:23:09.194Z,10552.00
2019-04-03T08:24:09.584Z,10824.00
2019-04-03T08:25:11.754Z,10952.00
2019-04-03T08:26:11.495Z,11096.00
2019-04-03T08:27:09.417Z,11308.00
2019-04-03T08:28:09.687Z,11624.00
2019-04-03T08:29:09.723Z,11988.00
2019-04-03T08:30:09.581Z,12136.00
2019-04-03T08:31:11.509Z,11916.00
2019-04-03T08:32:09.726Z,11184.00
2019-04-03T08:33:15.937Z,9936.00
2019-04-03T08:34:16.735Z,8504.00
2019-04-03T08:35:21.154Z,7464.00
2019-04-03T08:36:22.287Z,7124.00
2019-04-03T08:37:10.819Z,7408.00
2019-04-03T08:38:12.394Z,7576.00
2019-04-03T08:39:10.083Z,7728.00
2019-04-03T08:40:10.141Z,7848.00
2019-04-03T08:41:10.196Z,7924.00
2019-04-03T08:42:10.380Z,8004.00
2019-04-03T08:43:10.306Z,7996.00
2019-04-03T08:44:10.372Z,7608.00
2019-04-03T08:45:10.427Z,7108.00
2019-04-03T08:46:11.005Z,6772.00
2019-04-03T08:47:13.699Z,6148.00
2019-04-03T08:48:10.658Z,5552.00
2019-04-03T08:49:10.643Z,5508.00
2019-04-03T08:50:10.713Z,5560.00
2019-04-03T08:51:10.753Z,5828.00
2019-04-03T08:52:13.613Z,6352.00
2019-04-03T08:53:11.022Z,6048.00
2019-04-03T08:54:11.368Z,6060.00
2019-04-03T08:55:13.375Z,6960.00
2019-04-03T08:56:11.036Z,5800.00
2019-04-03T08:57:11.402Z,4524.00
2019-04-03T08:58:11.153Z,4276.00
2019-04-03T08:59:12.858Z,4596.00
2019-04-03T09:00:11.256Z,6084.00
2019-04-03T09:01:11.658Z,8760.00
2019-04-03T09:02:12.921Z,10540.00
2019-04-03T09:03:12.305Z,11404.00
2019-04-03T09:04:11.483Z,12288.00
2019-04-03T09:05:13.753Z,12504.00
2019-04-03T09:06:11.587Z,12996.00
2019-04-03T09:07:11.644Z,13740.00
2019-04-03T09:08:11.701Z,14312.00
2019-04-03T09:09:11.753Z,14904.00
2019-04-03T09:10:11.895Z,14792.00
2019-04-03T09:11:11.863Z,14620.00
2019-04-03T09:12:11.920Z,14052.00
2019-04-03T09:13:17.745Z,13016.00
2019-04-03T09:14:12.033Z,12536.00
2019-04-03T09:15:12.347Z,12432.00
2019-04-03T09:16:12.144Z,12328.00
2019-04-03T09:17:12.200Z,11908.00
2019-04-03T09:18:12.256Z,11832.00
2019-04-03T09:19:12.563Z,12336.00
2019-04-03T09:20:13.452Z,12608.00
2019-04-03T09:21:12.848Z,12204.00
2019-04-03T09:22:12.481Z,11116.00
2019-04-03T09:23:12.623Z,9968.00
2019-04-03T09:24:12.594Z,9524.00
2019-04-03T09:25:13.738Z,10296.00
2019-04-03T09:26:12.703Z,11176.00
2019-04-03T09:27:12.820Z,10836.00
2019-04-03T09:28:12.816Z,9896.00
2019-04-03T09:29:13.709Z,9776.00
2019-04-03T09:30:15.781Z,10456.00
2019-04-03T09:31:12.984Z,10204.00
2019-04-03T09:32:13.044Z,9420.00
2019-04-03T09:33:13.425Z,10220.00
2019-04-03T09:34:13.153Z,11628.00
2019-04-03T09:35:13.209Z,12776.00
2019-04-03T09:36:13.587Z,13336.00
2019-04-03T09:37:13.320Z,14252.00
2019-04-03T09:38:13.377Z,14868.00
2019-04-03T09:39:14.570Z,14596.00
2019-04-03T09:40:16.630Z,15460.00
2019-04-03T09:41:13.546Z,17040.00
2019-04-03T09:42:13.603Z,17824.00
2019-04-03T09:43:13.702Z,18784.00
2019-04-03T09:44:14.353Z,20064.00
2019-04-03T09:45:13.926Z,20576.00
2019-04-03T09:46:13.827Z,20512.00
2019-04-03T09:47:13.937Z,19872.00
2019-04-03T09:48:14.197Z,19072.00
2019-04-03T09:49:14.194Z,18912.00
2019-04-03T09:50:14.810Z,18976.00
2019-04-03T09:51:14.246Z,19008.00
2019-04-03T09:52:14.167Z,19520.00
2019-04-03T09:53:14.361Z,20192.00
2019-04-03T09:54:14.284Z,19040.00
2019-04-03T09:55:14.339Z,17952.00
2019-04-03T09:56:14.401Z,18560.00
2019-04-03T09:57:14.467Z,19040.00
2019-04-03T09:58:14.859Z,18912.00
2019-04-03T09:59:16.218Z,18880.00
2019-04-03T10:00:14.778Z,18816.00
2019-04-03T10:01:18.016Z,18400.00
2019-04-03T10:02:14.739Z,17308.00
2019-04-03T10:03:14.898Z,15944.00
2019-04-03T10:04:14.851Z,14640.00
2019-04-03T10:05:15.122Z,14408.00
2019-04-03T10:06:15.072Z,14484.00
2019-04-03T10:07:15.207Z,13972.00
2019-04-03T10:08:15.081Z,13036.00
2019-04-03T10:09:15.136Z,12336.00
2019-04-03T10:10:16.571Z,11748.00
2019-04-03T10:11:15.875Z,11396.00
2019-04-03T10:12:15.307Z,11396.00
2019-04-03T10:13:15.643Z,11832.00
2019-04-03T10:14:15.426Z,12164.00
2019-04-03T10:15:18.108Z,11928.00
2019-04-03T10:16:16.820Z,11648.00
2019-04-03T10:17:15.594Z,11896.00
2019-04-03T10:18:15.651Z,12640.00
2019-04-03T10:19:16.049Z,13228.00
2019-04-03T10:20:17.255Z,13176.00
2019-04-03T10:21:15.821Z,12752.00
2019-04-03T10:22:16.154Z,12036.00
2019-04-03T10:23:15.934Z,10716.00
2019-04-03T10:24:15.991Z,9192.00
2019-04-03T10:25:16.201Z,8880.00
2019-04-03T10:26:16.530Z,10080.00
2019-04-03T10:27:16.162Z,11584.00
2019-04-03T10:28:16.546Z,13908.00
2019-04-03T10:29:18.453Z,16932.00
2019-04-03T10:30:16.617Z,19424.00
2019-04-03T10:31:16.389Z,20832.00
2019-04-03T10:32:16.445Z,20896.00
2019-04-03T10:33:16.511Z,20288.00
2019-04-03T10:34:16.562Z,19744.00
2019-04-03T10:35:16.615Z,18304.00
2019-04-03T10:36:18.167Z,19456.00
2019-04-03T10:37:16.732Z,21696.00
2019-04-03T10:38:18.298Z,22752.00
2019-04-03T10:39:19.480Z,23200.00
2019-04-03T10:40:16.902Z,21952.00
2019-04-03T10:41:17.206Z,20000.00
2019-04-03T10:42:17.017Z,19648.00
2019-04-03T10:43:17.074Z,19360.00
2019-04-03T10:44:17.145Z,18432.00
2019-04-03T10:45:17.223Z,18848.00
2019-04-03T10:46:18.977Z,21632.00
2019-04-03T10:47:20.837Z,19744.00
2019-04-03T10:48:17.789Z,24256.00
2019-04-03T10:49:17.419Z,24096.00
2019-04-03T10:50:17.479Z,26144.00
2019-04-03T10:51:17.535Z,23392.00
2019-04-03T10:52:17.594Z,20800.00
2019-04-03T10:53:19.633Z,17888.00
2019-04-03T10:54:17.710Z,15660.00
2019-04-03T10:55:18.203Z,16268.00
2019-04-03T10:56:17.826Z,17568.00
2019-04-03T10:57:17.886Z,17600.00
2019-04-03T10:58:17.943Z,17792.00
2019-04-03T10:59:18.690Z,18304.00
2019-04-03T11:00:18.060Z,19520.00
2019-04-03T11:01:18.118Z,21664.00
2019-04-03T11:02:18.511Z,21664.00
2019-04-03T11:03:18.493Z,21088.00
2019-04-03T11:04:18.938Z,19936.00
2019-04-03T11:05:18.375Z,19456.00
2019-04-03T11:06:18.463Z,19488.00
2019-04-03T11:07:18.468Z,20448.00
2019-04-03T11:08:18.530Z,22016.00
2019-04-03T11:09:18.842Z,24608.00
2019-04-03T11:10:18.962Z,24896.00
2019-04-03T11:11:18.706Z,25152.00
2019-04-03T11:12:19.044Z,27584.00
2019-04-03T11:13:19.154Z,24608.00
2019-04-03T11:14:18.879Z,24032.00
2019-04-03T11:15:19.106Z,23168.00
2019-04-03T11:16:18.990Z,22208.00
2019-04-03T11:17:19.049Z,21952.00
2019-04-03T11:18:21.091Z,21664.00
2019-04-03T11:19:20.179Z,21024.00
2019-04-03T11:20:19.493Z,19840.00
2019-04-03T11:21:19.282Z,18496.00
2019-04-03T11:22:19.341Z,16936.00
2019-04-03T11:23:21.729Z,16104.00
2019-04-03T11:24:19.479Z,15748.00
2019-04-03T11:25:19.518Z,15028.00
2019-04-03T11:26:23.465Z,14936.00
2019-04-03T11:27:19.750Z,15744.00
2019-04-03T11:28:19.695Z,16932.00
2019-04-03T11:29:19.764Z,18144.00
2019-04-03T11:30:23.794Z,18560.00
2019-04-03T11:31:27.142Z,18464.00
2019-04-03T11:32:22.605Z,17920.00
2019-04-03T11:33:20.268Z,16972.00
2019-04-03T11:34:20.078Z,16224.00
2019-04-03T11:35:21.759Z,15552.00
2019-04-03T11:36:20.151Z,14376.00
2019-04-03T11:37:20.207Z,13120.00
2019-04-03T11:38:27.511Z,11928.00
2019-04-03T11:39:20.323Z,11044.00
2019-04-03T11:40:20.515Z,10756.00
2019-04-03T11:41:22.991Z,10860.00
2019-04-03T11:42:25.193Z,11108.00
2019-04-03T11:43:20.902Z,10772.00
2019-04-03T11:44:20.610Z,10040.00
2019-04-03T11:45:20.669Z,9684.00
2019-04-03T11:46:20.761Z,9924.00
2019-04-03T11:47:20.786Z,10544.00
2019-04-03T11:48:20.840Z,11492.00
2019-04-03T11:49:21.380Z,12764.00
2019-04-03T11:50:23.456Z,13768.00
2019-04-03T11:51:21.081Z,14072.00
2019-04-03T11:52:21.068Z,13984.00
2019-04-03T11:53:21.125Z,13528.00
2019-04-03T11:54:21.187Z,12408.00
2019-04-03T11:55:21.239Z,11108.00
2019-04-03T11:56:21.295Z,10660.00
2019-04-03T11:57:21.352Z,10520.00
2019-04-03T11:58:22.447Z,9856.00
2019-04-03T11:59:23.707Z,8860.00
2019-04-03T12:00:21.525Z,8412.00
2019-04-03T12:01:21.858Z,8140.00
2019-04-03T12:02:21.823Z,7592.00
2019-04-03T12:03:21.987Z,7244.00
2019-04-03T12:04:21.750Z,7444.00
2019-04-03T12:05:21.810Z,7648.00
2019-04-03T12:06:22.004Z,8428.00
2019-04-03T12:07:24.449Z,9552.00
2019-04-03T12:08:21.976Z,9416.00
2019-04-03T12:09:22.034Z,9400.00
2019-04-03T12:10:24.875Z,11196.00
2019-04-03T12:11:22.147Z,11544.00
2019-04-03T12:12:22.203Z,9760.00
2019-04-03T12:13:22.258Z,9736.00
2019-04-03T12:14:22.644Z,10196.00
2019-04-03T12:15:22.456Z,9232.00
2019-04-03T12:16:24.767Z,8676.00
2019-04-03T12:17:22.502Z,9140.00
2019-04-03T12:18:22.542Z,9104.00
2019-04-03T12:19:22.624Z,8732.00
2019-04-03T12:20:22.656Z,9084.00
2019-04-03T12:21:22.711Z,9656.00
2019-04-03T12:22:23.135Z,10140.00
2019-04-03T12:23:25.608Z,10540.00
2019-04-03T12:24:22.967Z,10620.00
2019-04-03T12:25:23.051Z,10420.00
2019-04-03T12:26:23.170Z,10696.00
2019-04-03T12:27:23.125Z,11716.00
2019-04-03T12:28:23.107Z,13012.00
2019-04-03T12:29:23.216Z,14404.00
2019-04-03T12:30:23.220Z,16008.00
2019-04-03T12:31:23.732Z,17824.00